createdAt,value
2018-03-14T00:00:28.114Z,6.12
2018-03-14T00:03:05.220Z,6.07
2018-03-14T00:04:12.375Z,6.06
2018-03-14T00:05:18.543Z,6.07
2018-03-14T00:06:24.679Z,6.07
2018-03-14T00:07:31.038Z,6.01
2018-03-14T00:08:40.319Z,6.00
2018-03-14T00:09:46.504Z,5.90
2018-03-14T00:10:52.694Z,5.95
2018-03-14T00:11:59.031Z,6.07
2018-03-14T00:13:04.915Z,6.08
2018-03-14T00:14:11.089Z,5.98
2018-03-14T00:15:17.221Z,6.02
2018-03-14T00:16:23.617Z,5.97
2018-03-14T00:17:30.411Z,6.05
2018-03-14T00:18:36.908Z,5.94
2018-03-14T00:19:43.102Z,6.05
2018-03-14T00:20:49.327Z,6.01
2018-03-14T00:21:55.562Z,6.03
2018-03-14T00:23:01.918Z,6.08
2018-03-14T00:24:08.087Z,6.11
2018-03-14T00:25:14.267Z,6.09
2018-03-14T00:26:20.476Z,6.15
2018-03-14T00:27:26.822Z,6.11
2018-03-14T00:28:32.988Z,5.98
2018-03-14T00:29:39.156Z,6.04
2018-03-14T00:30:45.283Z,6.09
2018-03-14T00:31:51.416Z,6.10
2018-03-14T00:32:57.833Z,6.05
2018-03-14T00:34:03.839Z,6.07
2018-03-14T00:35:10.055Z,6.06
2018-03-14T00:36:16.254Z,6.17
2018-03-14T00:37:23.353Z,6.16
2018-03-14T00:38:29.696Z,6.05
2018-03-14T00:39:35.835Z,6.14
2018-03-14T00:40:42.023Z,6.15
2018-03-14T00:41:48.157Z,6.12
2018-03-14T00:42:58.719Z,6.15
2018-03-14T00:44:04.547Z,6.21
2018-03-14T00:45:10.770Z,6.16
2018-03-14T00:46:16.994Z,6.05
2018-03-14T00:47:23.354Z,6.04
2018-03-14T00:48:29.718Z,6.07
2018-03-14T00:49:36.085Z,6.04
2018-03-14T00:50:42.424Z,5.98
2018-03-14T00:51:48.808Z,6.00
2018-03-14T00:52:54.950Z,6.12
2018-03-14T00:54:01.564Z,6.03
2018-03-14T00:55:07.676Z,6.06
2018-03-14T00:56:13.806Z,6.07
2018-03-14T00:57:20.595Z,6.06
2018-03-14T00:58:26.699Z,6.06
2018-03-14T00:59:32.853Z,6.09
2018-03-14T01:00:39.014Z,6.00
2018-03-14T01:01:46.192Z,5.91
2018-03-14T01:02:52.347Z,5.86
2018-03-14T01:03:58.503Z,5.84
2018-03-14T01:05:04.205Z,5.89
2018-03-14T01:06:12.232Z,5.89
2018-03-14T01:07:18.370Z,5.78
2018-03-14T01:08:30.607Z,5.89
2018-03-14T01:09:36.938Z,5.92
2018-03-14T01:10:43.282Z,5.96
2018-03-14T01:11:49.479Z,5.98
2018-03-14T01:12:55.699Z,6.01
2018-03-14T01:14:01.897Z,6.02
2018-03-14T01:15:08.605Z,5.91
2018-03-14T01:16:14.743Z,5.93
2018-03-14T01:17:32.768Z,5.95
2018-03-14T01:18:39.119Z,5.94
2018-03-14T01:19:45.496Z,6.00
2018-03-14T01:20:51.835Z,6.01
2018-03-14T01:21:58.172Z,6.02
2018-03-14T01:23:04.329Z,5.95
2018-03-14T01:24:10.506Z,5.91
2018-03-14T01:25:16.720Z,5.85
2018-03-14T01:26:23.119Z,5.92
2018-03-14T01:27:30.439Z,5.97
2018-03-14T01:28:36.809Z,5.96
2018-03-14T01:29:43.143Z,6.01
2018-03-14T01:30:49.266Z,6.03
2018-03-14T01:31:55.495Z,5.83
2018-03-14T01:33:01.885Z,5.87
2018-03-14T01:34:08.028Z,5.90
2018-03-14T01:35:14.167Z,5.80
2018-03-14T01:36:20.336Z,5.84
2018-03-14T01:37:26.514Z,5.73
2018-03-14T01:38:32.640Z,5.77
2018-03-14T01:39:38.811Z,5.85
2018-03-14T01:40:44.941Z,5.89
2018-03-14T01:41:51.102Z,5.97
2018-03-14T01:42:57.439Z,5.85
2018-03-14T01:44:03.862Z,5.89
2018-03-14T01:45:10.240Z,5.88
2018-03-14T01:46:16.408Z,5.78
2018-03-14T01:47:22.592Z,5.84
2018-03-14T01:48:28.752Z,5.75
2018-03-14T01:49:35.119Z,5.80
2018-03-14T01:50:41.007Z,5.82
2018-03-14T01:51:47.378Z,5.69
2018-03-14T01:52:52.841Z,5.60
2018-03-14T01:53:58.791Z,5.61
2018-03-14T01:55:04.803Z,5.66
2018-03-14T01:56:11.191Z,5.64
2018-03-14T01:57:17.723Z,5.60
2018-03-14T01:58:23.928Z,5.71
2018-03-14T01:59:30.129Z,5.65
2018-03-14T02:00:36.547Z,5.61
2018-03-14T02:01:41.673Z,5.64
2018-03-14T02:02:47.864Z,5.80
2018-03-14T02:03:53.788Z,5.77
2018-03-14T02:04:59.752Z,5.68
2018-03-14T02:06:05.991Z,5.84
2018-03-14T02:07:12.144Z,5.74
2018-03-14T02:08:18.269Z,5.60
2018-03-14T02:09:24.608Z,5.66
2018-03-14T02:10:30.924Z,5.66
2018-03-14T02:11:36.755Z,5.77
2018-03-14T02:12:42.901Z,5.85
2018-03-14T02:13:49.083Z,5.76
2018-03-14T02:14:55.535Z,5.70
2018-03-14T02:16:01.709Z,5.74
2018-03-14T02:17:07.866Z,5.77
2018-03-14T02:18:13.975Z,5.81
2018-03-14T02:19:20.075Z,5.82
2018-03-14T02:20:26.084Z,5.84
2018-03-14T02:21:32.204Z,5.86
2018-03-14T02:22:38.544Z,5.71
2018-03-14T02:23:46.947Z,5.70
2018-03-14T02:24:53.323Z,5.79
2018-03-14T02:25:59.725Z,5.68
2018-03-14T02:27:05.586Z,5.68
2018-03-14T02:28:11.610Z,5.67
2018-03-14T02:29:17.967Z,5.62
2018-03-14T02:30:24.399Z,5.66
2018-03-14T02:31:30.814Z,5.74
2018-03-14T02:32:36.971Z,5.79
2018-03-14T02:33:43.335Z,5.78
2018-03-14T02:34:49.715Z,5.78
2018-03-14T02:35:56.048Z,5.71
2018-03-14T02:37:02.335Z,5.68
2018-03-14T02:38:08.711Z,5.62
2018-03-14T02:39:15.115Z,5.64
2018-03-14T02:40:21.277Z,5.68
2018-03-14T02:41:27.662Z,5.78
2018-03-14T02:42:33.888Z,5.79
2018-03-14T02:43:40.028Z,5.85
2018-03-14T02:44:46.544Z,5.93
2018-03-14T02:45:52.746Z,6.02
2018-03-14T02:46:58.642Z,6.07
2018-03-14T02:48:04.851Z,6.06
2018-03-14T02:49:10.982Z,6.07
2018-03-14T02:50:17.158Z,6.12
2018-03-14T02:51:23.304Z,5.98
2018-03-14T02:52:29.402Z,5.97
2018-03-14T02:53:35.535Z,5.98
2018-03-14T02:54:42.347Z,5.94
2018-03-14T02:55:48.551Z,6.06
2018-03-14T02:56:54.728Z,6.14
2018-03-14T02:58:00.852Z,6.07
2018-03-14T02:59:07.011Z,6.03
2018-03-14T03:00:13.173Z,5.98
2018-03-14T03:01:18.971Z,5.92
2018-03-14T03:02:25.141Z,5.96
2018-03-14T03:03:30.984Z,5.92
2018-03-14T03:04:37.158Z,5.81
2018-03-14T03:05:43.340Z,5.76
2018-03-14T03:06:51.046Z,5.83
2018-03-14T03:07:57.254Z,5.90
2018-03-14T03:09:03.412Z,5.83
2018-03-14T03:10:09.372Z,5.86
2018-03-14T03:11:15.559Z,5.77
2018-03-14T03:12:21.715Z,5.82
2018-03-14T03:13:27.887Z,5.89
2018-03-14T03:14:34.079Z,5.94
2018-03-14T03:15:40.281Z,5.98
2018-03-14T03:16:46.443Z,5.90
2018-03-14T03:17:52.632Z,5.84
2018-03-14T03:19:01.790Z,5.82
2018-03-14T03:20:07.966Z,5.90
2018-03-14T03:21:18.024Z,5.99
2018-03-14T03:22:24.171Z,5.97
2018-03-14T03:23:30.346Z,5.98
2018-03-14T03:24:36.526Z,6.01
2018-03-14T03:25:42.687Z,5.94
2018-03-14T03:26:48.551Z,5.85
2018-03-14T03:27:54.694Z,5.94
2018-03-14T03:29:00.878Z,5.89
2018-03-14T03:30:07.066Z,5.90
2018-03-14T03:31:13.209Z,5.89
2018-03-14T03:32:19.376Z,5.93
2018-03-14T03:33:25.567Z,5.85
2018-03-14T03:34:31.766Z,5.81
2018-03-14T03:35:37.921Z,5.87
2018-03-14T03:36:44.079Z,5.88
2018-03-14T03:37:49.980Z,5.89
2018-03-14T03:38:56.145Z,5.91
2018-03-14T03:40:02.346Z,5.96
2018-03-14T03:41:08.506Z,5.86
2018-03-14T03:42:14.314Z,5.93
2018-03-14T03:43:20.498Z,5.95
2018-03-14T03:44:27.388Z,5.95
2018-03-14T03:45:33.595Z,5.90
2018-03-14T03:46:39.741Z,5.97
2018-03-14T03:47:45.919Z,5.94
2018-03-14T03:48:52.108Z,5.96
2018-03-14T03:49:58.240Z,5.97
2018-03-14T03:51:14.885Z,5.90
2018-03-14T03:52:21.033Z,5.94
2018-03-14T03:53:27.159Z,5.88
2018-03-14T03:54:33.328Z,6.02
2018-03-14T03:55:41.297Z,6.02
2018-03-14T03:56:47.474Z,6.12
2018-03-14T03:57:53.672Z,6.07
2018-03-14T03:58:59.817Z,6.03
2018-03-14T04:00:05.254Z,5.94
2018-03-14T04:01:11.409Z,5.93
2018-03-14T04:02:17.588Z,5.95
2018-03-14T04:03:23.855Z,5.98
2018-03-14T04:04:30.020Z,6.04
2018-03-14T04:05:36.142Z,6.04
2018-03-14T04:06:42.386Z,5.97
2018-03-14T04:07:48.651Z,6.04
2018-03-14T04:08:54.775Z,5.91
2018-03-14T04:10:00.882Z,5.87
2018-03-14T04:11:10.028Z,5.92
2018-03-14T04:12:16.190Z,5.90
2018-03-14T04:13:22.077Z,5.85
2018-03-14T04:14:28.316Z,5.84
2018-03-14T04:15:34.524Z,5.83
2018-03-14T04:16:40.740Z,5.89
2018-03-14T04:17:46.957Z,5.76
2018-03-14T04:18:53.159Z,5.66
2018-03-14T04:19:59.335Z,5.62
2018-03-14T04:21:05.515Z,5.75
2018-03-14T04:22:11.747Z,5.78
2018-03-14T04:23:17.936Z,5.79
2018-03-14T04:24:24.144Z,5.84
2018-03-14T04:25:30.260Z,5.94
2018-03-14T04:26:36.475Z,5.89
2018-03-14T04:27:42.608Z,5.78
2018-03-14T04:28:48.699Z,5.84
2018-03-14T04:29:54.889Z,5.85
2018-03-14T04:31:01.090Z,5.94
2018-03-14T04:32:12.314Z,5.85
2018-03-14T04:33:18.510Z,5.83
2018-03-14T04:34:24.748Z,5.74
2018-03-14T04:35:30.910Z,5.66
2018-03-14T04:36:37.031Z,5.64
2018-03-14T04:37:43.198Z,5.68
2018-03-14T04:38:49.344Z,5.79
2018-03-14T04:39:55.512Z,5.72
2018-03-14T04:41:01.644Z,5.66
2018-03-14T04:42:07.803Z,5.62
2018-03-14T04:43:13.903Z,5.62
2018-03-14T04:44:20.047Z,5.66
2018-03-14T04:45:26.222Z,5.60
2018-03-14T04:46:32.457Z,5.54
2018-03-14T04:47:38.618Z,5.54
2018-03-14T04:48:44.791Z,5.50
2018-03-14T04:49:51.008Z,5.48
2018-03-14T04:50:57.555Z,5.50
2018-03-14T04:52:03.766Z,5.45
2018-03-14T04:53:09.940Z,5.46
2018-03-14T04:54:16.147Z,5.47
2018-03-14T04:55:22.313Z,5.50
2018-03-14T04:56:28.474Z,5.52
2018-03-14T04:57:34.581Z,5.52
2018-03-14T04:58:40.681Z,5.54
2018-03-14T04:59:46.903Z,5.48
2018-03-14T05:00:53.032Z,5.49
2018-03-14T05:01:59.127Z,5.52
2018-03-14T05:03:05.243Z,5.42
2018-03-14T05:04:11.374Z,5.37
2018-03-14T05:05:17.693Z,5.48
2018-03-14T05:06:23.832Z,5.52
2018-03-14T05:07:30.017Z,5.51
2018-03-14T05:08:36.392Z,5.58
2018-03-14T05:09:42.509Z,5.39
2018-03-14T05:10:48.666Z,5.40
2018-03-14T05:11:54.759Z,5.40
2018-03-14T05:13:00.904Z,5.44
2018-03-14T05:14:07.043Z,5.54
2018-03-14T05:15:12.936Z,5.56
2018-03-14T05:16:19.109Z,5.52
2018-03-14T05:17:25.281Z,5.45
2018-03-14T05:18:31.447Z,5.35
2018-03-14T05:19:37.547Z,5.31
2018-03-14T05:20:43.684Z,5.46
2018-03-14T05:21:49.856Z,5.40
2018-03-14T05:23:01.213Z,5.36
2018-03-14T05:24:07.931Z,5.30
2018-03-14T05:25:14.138Z,5.30
2018-03-14T05:26:20.412Z,5.29
2018-03-14T05:27:26.596Z,5.27
2018-03-14T05:28:32.740Z,5.30
2018-03-14T05:29:38.888Z,5.32
2018-03-14T05:30:45.011Z,5.33
2018-03-14T05:31:51.203Z,5.40
2018-03-14T05:32:57.350Z,5.33
2018-03-14T05:34:03.501Z,5.29
2018-03-14T05:35:12.672Z,5.32
2018-03-14T05:36:18.909Z,5.29
2018-03-14T05:37:25.060Z,5.41
2018-03-14T05:38:31.204Z,5.41
2018-03-14T05:39:37.340Z,5.33
2018-03-14T05:40:43.515Z,5.32
2018-03-14T05:41:49.683Z,5.43
2018-03-14T05:42:55.819Z,5.43
2018-03-14T05:44:01.949Z,5.40
2018-03-14T05:45:08.068Z,5.33
2018-03-14T05:46:14.269Z,5.33
2018-03-14T05:47:20.515Z,5.37
2018-03-14T05:48:26.691Z,5.33
2018-03-14T05:49:32.861Z,5.38
2018-03-14T05:50:39.072Z,5.33
2018-03-14T05:51:45.247Z,5.33
2018-03-14T05:52:51.367Z,5.42
2018-03-14T05:53:57.495Z,5.43
2018-03-14T05:55:03.652Z,5.42
2018-03-14T05:56:09.832Z,5.31
2018-03-14T05:57:16.027Z,5.33
2018-03-14T05:58:22.231Z,5.39
2018-03-14T05:59:28.513Z,5.34
2018-03-14T06:00:35.182Z,5.27
2018-03-14T06:01:41.786Z,5.16
2018-03-14T06:02:49.517Z,5.28
2018-03-14T06:03:55.828Z,5.32
2018-03-14T06:05:02.160Z,5.31
2018-03-14T06:06:08.772Z,5.40
2018-03-14T06:07:15.263Z,5.33
2018-03-14T06:08:21.612Z,5.37
2018-03-14T06:09:27.836Z,5.25
2018-03-14T06:10:33.970Z,5.32
2018-03-14T06:11:40.337Z,5.31
2018-03-14T06:12:46.491Z,5.25
2018-03-14T06:13:52.650Z,5.23
2018-03-14T06:14:58.883Z,5.33
2018-03-14T06:16:04.923Z,5.37
2018-03-14T06:17:10.817Z,5.39
2018-03-14T06:18:16.943Z,5.40
2018-03-14T06:19:23.096Z,5.45
2018-03-14T06:20:29.239Z,5.63
2018-03-14T06:21:35.832Z,5.57
2018-03-14T06:22:42.013Z,5.62
2018-03-14T06:23:48.128Z,5.57
2018-03-14T06:24:54.053Z,5.53
2018-03-14T06:26:00.202Z,5.62
2018-03-14T06:27:06.422Z,5.60
2018-03-14T06:28:12.577Z,5.55
2018-03-14T06:29:18.750Z,5.53
2018-03-14T06:30:24.980Z,5.47
2018-03-14T06:31:31.179Z,5.60
2018-03-14T06:32:37.416Z,5.58
2018-03-14T06:33:44.033Z,5.58
2018-03-14T06:34:50.134Z,5.64
2018-03-14T06:35:56.298Z,5.72
2018-03-14T06:37:02.499Z,5.68
2018-03-14T06:38:08.646Z,5.55
2018-03-14T06:39:14.530Z,5.52
2018-03-14T06:40:20.718Z,5.45
2018-03-14T06:41:26.908Z,5.53
2018-03-14T06:42:33.065Z,5.63
2018-03-14T06:43:39.248Z,5.60
2018-03-14T06:44:45.429Z,5.62
2018-03-14T06:45:51.632Z,5.60
2018-03-14T06:46:57.796Z,5.64
2018-03-14T06:48:06.189Z,5.68
2018-03-14T06:49:13.206Z,5.73
2018-03-14T06:50:19.181Z,5.81
2018-03-14T06:51:25.354Z,5.88
2018-03-14T06:52:31.776Z,5.90
2018-03-14T06:53:37.910Z,5.89
2018-03-14T06:54:44.184Z,5.80
2018-03-14T06:55:51.348Z,5.79
2018-03-14T06:56:57.920Z,5.75
2018-03-14T06:58:04.096Z,5.71
2018-03-14T06:59:21.171Z,5.68
2018-03-14T07:00:38.259Z,5.74
2018-03-14T07:01:55.346Z,5.83
2018-03-14T07:04:44.582Z,5.86
2018-03-14T07:06:01.396Z,5.88
2018-03-14T07:07:07.304Z,5.84
2018-03-14T07:08:13.485Z,5.86
2018-03-14T07:09:19.605Z,5.85
2018-03-14T07:10:25.704Z,5.90
2018-03-14T07:11:31.895Z,5.84
2018-03-14T07:12:38.489Z,5.93
2018-03-14T07:13:44.595Z,5.93
2018-03-14T07:14:51.028Z,5.99
2018-03-14T07:15:57.180Z,5.97
2018-03-14T07:17:03.357Z,5.97
2018-03-14T07:18:09.593Z,5.96
2018-03-14T07:19:20.620Z,5.98
2018-03-14T07:20:26.721Z,6.09
2018-03-14T07:21:31.699Z,6.08
2018-03-14T07:22:37.817Z,6.07
2018-03-14T07:23:44.050Z,6.26
2018-03-14T07:24:50.184Z,6.22
2018-03-14T07:25:56.332Z,6.10
2018-03-14T07:27:04.468Z,6.16
2018-03-14T07:28:10.672Z,6.20
2018-03-14T07:29:16.618Z,6.15
2018-03-14T07:30:22.764Z,6.18
2018-03-14T07:31:28.905Z,6.21
2018-03-14T07:32:35.044Z,6.22
2018-03-14T07:33:41.213Z,6.31
2018-03-14T07:34:47.388Z,6.37
2018-03-14T07:35:53.486Z,6.35
2018-03-14T07:36:59.795Z,6.35
2018-03-14T07:38:05.940Z,6.37
2018-03-14T07:39:12.236Z,6.31
2018-03-14T07:40:18.427Z,6.37
2018-03-14T07:41:24.635Z,6.22
2018-03-14T07:42:30.771Z,6.31
2018-03-14T07:43:36.921Z,6.32
2018-03-14T07:44:43.131Z,6.38
2018-03-14T07:45:49.441Z,6.31
2018-03-14T07:46:55.625Z,6.27
2018-03-14T07:48:01.836Z,6.28
2018-03-14T07:49:08.025Z,6.37
2018-03-14T07:50:14.148Z,6.36
2018-03-14T07:51:20.284Z,6.23
2018-03-14T07:52:26.404Z,6.20
2018-03-14T07:53:32.575Z,6.20
2018-03-14T07:54:38.726Z,6.18
2018-03-14T07:55:44.896Z,6.18
2018-03-14T07:56:51.031Z,6.13
2018-03-14T07:57:57.184Z,6.09
2018-03-14T07:59:03.371Z,6.08
2018-03-14T08:00:09.509Z,6.12
2018-03-14T08:01:15.473Z,6.21
2018-03-14T08:02:21.712Z,6.22
2018-03-14T08:03:27.932Z,6.19
2018-03-14T08:04:34.116Z,6.13
2018-03-14T08:05:40.296Z,6.14
2018-03-14T08:06:46.478Z,6.13
2018-03-14T08:07:52.663Z,6.09
2018-03-14T08:08:58.833Z,6.00
2018-03-14T08:10:04.662Z,5.93
2018-03-14T08:11:10.890Z,5.98
2018-03-14T08:12:17.076Z,6.05
2018-03-14T08:13:23.247Z,6.08
2018-03-14T08:14:29.612Z,6.18
2018-03-14T08:15:35.894Z,6.18
2018-03-14T08:16:42.060Z,6.04
2018-03-14T08:17:48.181Z,6.08
2018-03-14T08:18:54.370Z,6.19
2018-03-14T08:20:00.504Z,6.22
2018-03-14T08:21:06.754Z,6.13
2018-03-14T08:22:13.027Z,6.17
2018-03-14T08:23:19.160Z,6.17
2018-03-14T08:24:25.300Z,6.01
2018-03-14T08:25:31.677Z,6.06
2018-03-14T08:26:37.635Z,6.06
2018-03-14T08:27:43.782Z,6.07
2018-03-14T08:28:49.933Z,6.17
2018-03-14T08:29:56.417Z,6.19
2018-03-14T08:31:02.566Z,6.15
2018-03-14T08:32:08.736Z,6.09
2018-03-14T08:33:14.906Z,5.98
2018-03-14T08:34:21.069Z,6.10
2018-03-14T08:35:27.250Z,6.17
2018-03-14T08:36:33.377Z,6.21
2018-03-14T08:37:39.566Z,6.37
2018-03-14T08:38:45.725Z,6.35
2018-03-14T08:39:51.933Z,6.27
2018-03-14T08:40:58.087Z,6.37
2018-03-14T08:42:04.219Z,6.42
2018-03-14T08:43:10.417Z,6.49
2018-03-14T08:44:16.624Z,6.48
2018-03-14T08:45:22.764Z,6.53
2018-03-14T08:46:28.953Z,6.61
2018-03-14T08:47:35.135Z,6.68
2018-03-14T08:48:41.335Z,6.65
2018-03-14T08:49:47.480Z,6.73
2018-03-14T08:50:53.657Z,6.75
2018-03-14T08:51:59.802Z,6.72
2018-03-14T08:53:06.210Z,6.78
2018-03-14T08:54:12.382Z,6.79
2018-03-14T08:55:18.559Z,6.87
2018-03-14T08:56:24.699Z,6.84
2018-03-14T08:57:30.926Z,6.88
2018-03-14T08:58:37.068Z,6.86
2018-03-14T08:59:43.275Z,6.90
2018-03-14T09:00:49.409Z,6.90
2018-03-14T09:01:55.668Z,6.89
2018-03-14T09:03:01.871Z,6.87
2018-03-14T09:04:08.132Z,6.93
2018-03-14T09:05:14.315Z,7.01
2018-03-14T09:06:21.084Z,7.03
2018-03-14T09:07:27.260Z,7.03
2018-03-14T09:08:33.638Z,7.01
2018-03-14T09:09:39.795Z,6.97
2018-03-14T09:10:45.895Z,6.99
2018-03-14T09:11:52.011Z,7.04
2018-03-14T09:12:58.115Z,7.08
2018-03-14T09:14:04.020Z,6.92
2018-03-14T09:15:10.216Z,6.89
2018-03-14T09:16:16.392Z,6.90
2018-03-14T09:17:22.573Z,6.87
2018-03-14T09:18:28.756Z,6.88
2018-03-14T09:19:34.938Z,6.88
2018-03-14T09:20:41.055Z,6.86
2018-03-14T09:21:47.158Z,6.79
2018-03-14T09:22:53.384Z,6.86
2018-03-14T09:23:59.538Z,6.91
2018-03-14T09:25:05.450Z,6.94
2018-03-14T09:26:11.616Z,6.98
2018-03-14T09:27:17.804Z,7.07
2018-03-14T09:28:23.955Z,6.93
2018-03-14T09:29:30.118Z,7.04
2018-03-14T09:30:35.924Z,7.10
2018-03-14T09:31:42.185Z,7.00
2018-03-14T09:32:48.552Z,6.97
2018-03-14T09:33:54.799Z,6.95
2018-03-14T09:35:00.976Z,7.04
2018-03-14T09:36:07.104Z,6.96
2018-03-14T09:37:13.231Z,7.03
2018-03-14T09:38:19.350Z,7.08
2018-03-14T09:39:25.207Z,6.98
2018-03-14T09:40:31.379Z,6.96
2018-03-14T09:41:37.546Z,6.94
2018-03-14T09:42:43.690Z,6.98
2018-03-14T09:43:49.837Z,6.94
2018-03-14T09:44:55.963Z,6.99
2018-03-14T09:46:02.130Z,7.00
2018-03-14T09:47:11.535Z,6.91
2018-03-14T09:48:17.856Z,6.92
2018-03-14T09:49:24.042Z,6.83
2018-03-14T09:50:30.170Z,6.79
2018-03-14T09:51:36.312Z,6.90
2018-03-14T09:52:42.448Z,6.97
2018-03-14T09:53:49.504Z,6.91
2018-03-14T09:54:55.632Z,6.82
2018-03-14T09:56:01.841Z,6.85
2018-03-14T09:57:08.464Z,6.84
2018-03-14T09:58:14.715Z,6.86
2018-03-14T09:59:20.839Z,6.83
2018-03-14T10:00:26.936Z,6.91
2018-03-14T10:01:33.092Z,6.91
2018-03-14T10:02:39.204Z,6.99
2018-03-14T10:03:45.371Z,6.92
2018-03-14T10:04:51.532Z,6.93
2018-03-14T10:05:57.683Z,7.03
2018-03-14T10:07:03.808Z,7.11
2018-03-14T10:08:09.969Z,7.09
2018-03-14T10:09:16.380Z,7.16
2018-03-14T10:10:22.669Z,7.21
2018-03-14T10:11:28.854Z,7.26
2018-03-14T10:12:35.004Z,7.20
2018-03-14T10:13:41.145Z,7.08
2018-03-14T10:14:47.292Z,7.20
2018-03-14T10:15:53.472Z,7.23
2018-03-14T10:16:59.656Z,7.21
2018-03-14T10:18:05.874Z,7.22
2018-03-14T10:19:12.006Z,7.10
2018-03-14T10:20:18.219Z,7.13
2018-03-14T10:21:24.507Z,7.10
2018-03-14T10:22:33.550Z,7.17
2018-03-14T10:23:39.666Z,7.13
2018-03-14T10:24:45.884Z,7.19
2018-03-14T10:25:52.098Z,7.12
2018-03-14T10:26:58.452Z,7.16
2018-03-14T10:28:03.885Z,7.20
2018-03-14T10:29:10.045Z,7.19
2018-03-14T10:30:16.237Z,7.28
2018-03-14T10:31:23.143Z,7.39
2018-03-14T10:32:29.383Z,7.35
2018-03-14T10:33:35.573Z,7.37
2018-03-14T10:34:41.788Z,7.28
2018-03-14T10:35:47.945Z,7.27
2018-03-14T10:36:54.140Z,7.31
2018-03-14T10:38:00.279Z,7.34
2018-03-14T10:39:05.259Z,7.28
2018-03-14T10:40:11.421Z,7.22
2018-03-14T10:41:17.626Z,7.24
2018-03-14T10:42:28.939Z,7.27
2018-03-14T10:43:36.348Z,7.25
2018-03-14T10:44:42.541Z,7.20
2018-03-14T10:45:48.655Z,7.32
2018-03-14T10:46:54.484Z,7.32
2018-03-14T10:48:00.727Z,7.30
2018-03-14T10:49:06.600Z,7.43
2018-03-14T10:50:12.794Z,7.41
2018-03-14T10:51:19.001Z,7.30
2018-03-14T10:52:25.301Z,7.28
2018-03-14T10:53:31.460Z,7.22
2018-03-14T10:54:37.602Z,7.18
2018-03-14T10:55:43.823Z,7.28
2018-03-14T10:56:49.931Z,7.28
2018-03-14T10:57:56.114Z,7.25
2018-03-14T10:59:02.261Z,7.29
2018-03-14T11:00:07.592Z,7.30
2018-03-14T11:01:13.551Z,7.23
2018-03-14T11:02:22.425Z,7.32
2018-03-14T11:03:34.140Z,7.35
2018-03-14T11:04:40.281Z,7.33
2018-03-14T11:05:46.478Z,7.22
2018-03-14T11:06:52.655Z,7.33
2018-03-14T11:07:58.882Z,7.39
2018-03-14T11:09:04.384Z,7.42
2018-03-14T11:10:10.492Z,7.38
2018-03-14T11:11:17.266Z,7.42
2018-03-14T11:12:23.410Z,7.54
2018-03-14T11:13:29.607Z,7.57
2018-03-14T11:14:36.020Z,7.40
2018-03-14T11:15:42.192Z,7.48
2018-03-14T11:16:48.392Z,7.51
2018-03-14T11:17:54.619Z,7.55
2018-03-14T11:19:00.795Z,7.53
2018-03-14T11:20:06.984Z,7.48
2018-03-14T11:21:13.370Z,7.51
2018-03-14T11:22:19.540Z,7.67
2018-03-14T11:23:25.716Z,7.73
2018-03-14T11:24:31.889Z,7.63
2018-03-14T11:25:38.149Z,7.75
2018-03-14T11:26:44.560Z,7.81
2018-03-14T11:27:50.778Z,7.88
2018-03-14T11:28:56.988Z,8.01
2018-03-14T11:30:03.171Z,7.95
2018-03-14T11:31:08.985Z,7.96
2018-03-14T11:32:15.161Z,7.98
2018-03-14T11:33:21.349Z,8.10
2018-03-14T11:34:27.496Z,8.20
2018-03-14T11:35:33.705Z,8.20
2018-03-14T11:36:39.895Z,8.12
2018-03-14T11:37:46.107Z,8.11
2018-03-14T11:38:52.333Z,8.15
2018-03-14T11:39:58.501Z,8.12
2018-03-14T11:41:04.733Z,8.14
2018-03-14T11:42:10.897Z,7.98
2018-03-14T11:43:16.813Z,8.05
2018-03-14T11:44:23.021Z,8.01
2018-03-14T11:45:29.248Z,8.05
2018-03-14T11:46:35.400Z,7.92
2018-03-14T11:47:41.362Z,7.90
2018-03-14T11:48:47.495Z,7.83
2018-03-14T11:49:53.687Z,7.87
2018-03-14T11:50:59.888Z,7.86
2018-03-14T11:52:05.771Z,7.83
2018-03-14T11:53:11.955Z,7.75
2018-03-14T11:54:18.218Z,7.71
2018-03-14T11:55:24.428Z,7.79
2018-03-14T11:56:30.635Z,7.72
2018-03-14T11:57:36.816Z,7.72
2018-03-14T11:58:43.306Z,7.77
2018-03-14T11:59:49.771Z,7.71
2018-03-14T12:00:56.170Z,7.66
2018-03-14T12:02:02.336Z,7.64
2018-03-14T12:03:08.539Z,7.63
2018-03-14T12:04:14.748Z,7.62
2018-03-14T12:05:21.172Z,7.68
2018-03-14T12:06:27.319Z,7.73
2018-03-14T12:07:33.495Z,7.81
2018-03-14T12:08:39.644Z,7.80
2018-03-14T12:09:45.881Z,7.82
2018-03-14T12:10:52.079Z,7.82
2018-03-14T12:11:58.276Z,7.85
2018-03-14T12:13:04.134Z,7.78
2018-03-14T12:14:10.375Z,7.74
2018-03-14T12:15:16.873Z,7.70
2018-03-14T12:16:23.084Z,7.68
2018-03-14T12:17:29.259Z,7.70
2018-03-14T12:18:35.490Z,7.76
2018-03-14T12:19:41.884Z,7.84
2018-03-14T12:20:48.092Z,7.88
2018-03-14T12:21:54.693Z,7.88
2018-03-14T12:23:00.864Z,7.92
2018-03-14T12:24:07.043Z,7.91
2018-03-14T12:25:13.283Z,7.93
2018-03-14T12:26:19.543Z,7.94
2018-03-14T12:27:25.950Z,7.93
2018-03-14T12:28:32.207Z,7.94
2018-03-14T12:29:38.347Z,7.98
2018-03-14T12:30:44.569Z,7.95
2018-03-14T12:31:50.761Z,7.89
2018-03-14T12:32:56.980Z,8.06
2018-03-14T12:34:16.189Z,7.98
2018-03-14T12:35:22.497Z,7.98
2018-03-14T12:36:28.715Z,8.05
2018-03-14T12:37:35.879Z,8.05
2018-03-14T12:38:42.076Z,7.81
2018-03-14T12:39:48.294Z,7.97
2018-03-14T12:40:54.531Z,8.08
2018-03-14T12:42:00.761Z,8.10
2018-03-14T12:43:06.967Z,8.01
2018-03-14T12:44:13.206Z,8.15
2018-03-14T12:45:19.409Z,8.01
2018-03-14T12:46:25.702Z,7.94
2018-03-14T12:47:31.896Z,7.92
2018-03-14T12:48:38.144Z,7.94
2018-03-14T12:49:44.321Z,7.97
2018-03-14T12:50:50.555Z,8.05
2018-03-14T12:51:56.528Z,8.04
2018-03-14T12:53:02.769Z,8.12
2018-03-14T12:54:08.759Z,8.03
2018-03-14T12:55:15.592Z,7.96
2018-03-14T12:56:21.817Z,7.93
2018-03-14T12:57:27.991Z,7.91
2018-03-14T12:58:34.225Z,7.86
2018-03-14T12:59:41.265Z,7.81
2018-03-14T13:00:47.467Z,7.82
2018-03-14T13:01:53.770Z,7.82
2018-03-14T13:03:00.590Z,7.84
2018-03-14T13:04:06.885Z,7.83
2018-03-14T13:05:13.163Z,7.75
2018-03-14T13:06:19.374Z,7.69
2018-03-14T13:07:25.581Z,7.58
2018-03-14T13:08:36.975Z,7.57
2018-03-14T13:09:43.200Z,7.55
2018-03-14T13:10:49.433Z,7.73
2018-03-14T13:11:55.646Z,7.77
2018-03-14T13:13:01.868Z,7.68
2018-03-14T13:14:08.117Z,7.58
2018-03-14T13:15:14.290Z,7.52
2018-03-14T13:16:21.462Z,7.53
2018-03-14T13:17:27.650Z,7.66
2018-03-14T13:18:33.972Z,7.77
2018-03-14T13:19:40.917Z,7.74
2018-03-14T13:20:47.217Z,7.77
2018-03-14T13:21:53.687Z,7.74
2018-03-14T13:22:59.910Z,7.83
2018-03-14T13:24:06.176Z,7.87
2018-03-14T13:25:12.369Z,7.85
2018-03-14T13:26:18.639Z,7.95
2018-03-14T13:27:26.006Z,8.06
2018-03-14T13:28:32.824Z,7.98
2018-03-14T13:29:39.089Z,7.91
2018-03-14T13:30:45.518Z,8.00
2018-03-14T13:31:51.746Z,7.91
2018-03-14T13:32:58.027Z,7.90
2018-03-14T13:34:04.286Z,7.96
2018-03-14T13:35:10.705Z,7.86
2018-03-14T13:36:17.894Z,7.82
2018-03-14T13:37:24.138Z,7.82
2018-03-14T13:38:30.363Z,7.74
2018-03-14T13:39:41.460Z,7.71
2018-03-14T13:40:47.675Z,7.79
2018-03-14T13:41:53.919Z,7.79
2018-03-14T13:43:00.363Z,7.78
2018-03-14T13:44:07.376Z,7.74
2018-03-14T13:45:13.584Z,7.71
2018-03-14T13:46:19.814Z,7.68
2018-03-14T13:47:26.193Z,7.62
2018-03-14T13:48:32.508Z,7.58
2018-03-14T13:49:38.822Z,7.58
2018-03-14T13:50:45.159Z,7.58
2018-03-14T13:51:51.441Z,7.62
2018-03-14T13:52:57.853Z,7.62
2018-03-14T13:54:03.810Z,7.62
2018-03-14T13:55:09.950Z,7.53
2018-03-14T13:56:17.139Z,7.57
2018-03-14T13:57:23.484Z,7.57
2018-03-14T13:58:29.744Z,7.60
2018-03-14T13:59:36.029Z,7.61
2018-03-14T14:00:42.288Z,7.58
2018-03-14T14:01:48.564Z,7.51
2018-03-14T14:02:54.963Z,7.36
2018-03-14T14:04:01.555Z,7.38
2018-03-14T14:05:07.793Z,7.43
2018-03-14T14:06:14.106Z,7.44
2018-03-14T14:07:20.356Z,7.48
2018-03-14T14:08:26.621Z,7.54
2018-03-14T14:09:32.856Z,7.62
2018-03-14T14:10:39.089Z,7.53
2018-03-14T14:11:45.392Z,7.56
2018-03-14T14:12:51.614Z,7.59
2018-03-14T14:13:57.822Z,7.58
2018-03-14T14:15:04.047Z,7.62
2018-03-14T14:16:10.327Z,7.53
2018-03-14T14:17:16.560Z,7.48
2018-03-14T14:18:22.810Z,7.39
2018-03-14T14:19:28.768Z,7.42
2018-03-14T14:20:35.039Z,7.46
2018-03-14T14:21:41.328Z,7.47
2018-03-14T14:22:47.778Z,7.44
2018-03-14T14:23:54.014Z,7.46
2018-03-14T14:25:01.785Z,7.47
2018-03-14T14:26:08.587Z,7.53
2018-03-14T14:27:14.843Z,7.56
2018-03-14T14:28:22.089Z,7.56
2018-03-14T14:29:28.334Z,7.57
2018-03-14T14:30:34.595Z,7.50
2018-03-14T14:31:40.886Z,7.51
2018-03-14T14:32:47.084Z,7.43
2018-03-14T14:33:53.334Z,7.48
2018-03-14T14:35:00.119Z,7.50
2018-03-14T14:36:06.458Z,7.52
2018-03-14T14:37:13.797Z,7.58
2018-03-14T14:38:20.096Z,7.39
2018-03-14T14:39:26.418Z,7.43
2018-03-14T14:40:32.706Z,7.39
2018-03-14T14:41:39.015Z,7.42
2018-03-14T14:42:45.263Z,7.40
2018-03-14T14:43:51.561Z,7.43
2018-03-14T14:44:57.834Z,7.48
2018-03-14T14:46:05.027Z,7.43
2018-03-14T14:47:11.502Z,7.49